Time;durP1;ratioP1;P1;durP2;ratioP2;P2;SDS_P1;SDS_P2;PMS_P1;PMS_P2;Temp;Humidity;BMP_temperature;BMP_pressure;BME280_temperature;BME280_humidity;BME280_pressure;Samples;Min_cycle;Max_cycle;Signal;HPM_P1;HPM_P2
2023/05/01 00:00:59;;;;;;;2.97;2.70;;;;;;;;;;5021593;28;20036;-42
2023/05/01 00:03:25;;;;;;;2.58;2.20;;;;;;;;;;5024263;28;20451;-45
2023/05/01 00:05:57;;;;;;;2.40;2.30;;;;;;;;;;5022817;28;20033;-44
2023/05/01 00:08:23;;;;;;;2.65;2.22;;;;;;;;;;5022487;28;20033;-48
2023/05/01 00:10:48;;;;;;;2.83;2.60;;;;;;;;;;5022183;28;20438;-45
2023/05/01 00:13:14;;;;;;;4.10;2.17;;;;;;;;;;5023262;28;20025;-50
2023/05/01 00:15:40;;;;;;;2.45;2.25;;;;;;;;;;5021711;28;20555;-48
2023/05/01 00:18:06;;;;;;;4.68;2.17;;;;;;;;;;5020879;28;20063;-45
2023/05/01 00:20:31;;;;;;;2.65;2.45;;;;;;;;;;5024129;28;20041;-48
2023/05/01 00:22:56;;;;;;;3.85;2.80;;;;;;;;;;5023572;28;20069;-47
2023/05/01 00:25:22;;;;;;;3.47;2.70;;;;;;;;;;5023991;28;20037;-48
2023/05/01 00:27:47;;;;;;;3.78;2.92;;;;;;;;;;5023025;28;20072;-47
2023/05/01 00:30:13;;;;;;;2.78;2.58;;;;;;;;;;5020331;28;20505;-44
2023/05/01 00:32:38;;;;;;;4.07;2.92;;;;;;;;;;5023300;28;20033;-49
2023/05/01 00:35:04;;;;;;;4.70;3.10;;;;;;;;;;5024669;28;20095;-42
2023/05/01 00:37:30;;;;;;;3.20;3.00;;;;;;;;;;5023078;28;20071;-42
2023/05/01 00:39:55;;;;;;;3.20;3.00;;;;;;;;;;5020911;28;20029;-42
2023/05/01 00:42:20;;;;;;;4.50;3.10;;;;;;;;;;5023067;28;20092;-41
2023/05/01 00:44:46;;;;;;;3.75;3.17;;;;;;;;;;5021493;28;20424;-41
2023/05/01 00:47:11;;;;;;;6.20;3.05;;;;;;;;;;5022361;28;20044;-42
2023/05/01 00:49:37;;;;;;;6.70;3.05;;;;;;;;;;5019415;28;20459;-43
2023/05/01 00:52:02;;;;;;;3.05;2.85;;;;;;;;;;5023079;28;20037;-42
2023/05/01 00:54:28;;;;;;;3.65;3.35;;;;;;;;;;5024295;28;20022;-42
2023/05/01 00:56:54;;;;;;;4.68;2.95;;;;;;;;;;5020984;28;20053;-41
2023/05/01 00:59:20;;;;;;;3.67;3.47;;;;;;;;;;5023360;28;20025;-43
2023/05/01 01:01:46;;;;;;;3.92;3.63;;;;;;;;;;5021076;28;20033;-42
2023/05/01 01:04:12;;;;;;;3.72;3.42;;;;;;;;;;5025271;28;20034;-43
2023/05/01 01:06:43;;;;;;;3.88;3.58;;;;;;;;;;5023685;28;20120;-42
2023/05/01 01:09:36;;;;;;;3.80;3.50;;;;;;;;;;5021154;28;20029;-42
2023/05/01 01:12:07;;;;;;;4.72;3.28;;;;;;;;;;5020585;28;20132;-42
2023/05/01 01:14:41;;;;;;;4.17;3.83;;;;;;;;;;5022991;28;20079;-41
2023/05/01 01:17:47;;;;;;;3.95;3.55;;;;;;;;;;5022287;28;20053;-43
2023/05/01 01:20:48;;;;;;;4.63;3.58;;;;;;;;;;4946436;29;20030;-44
2023/05/01 01:23:38;;;;;;;3.75;3.45;;;;;;;;;;4947088;29;20997;-41
2023/05/01 01:26:27;;;;;;;4.05;3.65;;;;;;;;;;4946873;29;20046;-43
2023/05/01 01:29:25;;;;;;;4.07;3.55;;;;;;;;;;4946699;29;20047;-42
2023/05/01 01:32:22;;;;;;;3.95;3.60;;;;;;;;;;4947402;29;20091;-42
2023/05/01 01:34:54;;;;;;;4.55;3.95;;;;;;;;;;4946928;29;20447;-43
2023/05/01 01:37:21;;;;;;;4.32;3.92;;;;;;;;;;4944409;29;20151;-45
2023/05/01 01:40:08;;;;;;;4.05;3.65;;;;;;;;;;4944882;28;20512;-42
2023/05/01 01:42:37;;;;;;;4.22;3.90;;;;;;;;;;4946628;29;20062;-43
2023/05/01 01:45:10;;;;;;;6.38;5.10;;;;;;;;;;4945258;29;20042;-42
2023/05/01 01:47:40;;;;;;;4.70;3.78;;;;;;;;;;4945136;28;20105;-42
2023/05/01 01:50:07;;;;;;;4.45;4.05;;;;;;;;;;4950420;29;20039;-41
2023/05/01 01:52:35;;;;;;;6.22;4.25;;;;;;;;;;4949115;29;20043;-42
2023/05/01 01:55:06;;;;;;;4.90;4.50;;;;;;;;;;5012388;28;20048;-43
2023/05/01 01:57:35;;;;;;;6.60;3.95;;;;;;;;;;5027575;28;20457;-42
2023/05/01 02:00:00;;;;;;;5.50;4.35;;;;;;;;;;5024888;28;20440;-42
2023/05/01 02:02:27;;;;;;;5.15;4.00;;;;;;;;;;5024549;28;20034;-44
2023/05/01 02:04:55;;;;;;;7.13;4.00;;;;;;;;;;5028152;28;20458;-41
2023/05/01 02:07:22;;;;;;;6.20;4.07;;;;;;;;;;5025015;28;20037;-42
2023/05/01 02:09:49;;;;;;;4.38;4.07;;;;;;;;;;5025251;28;20055;-42
2023/05/01 02:12:16;;;;;;;4.30;3.90;;;;;;;;;;5025537;28;20033;-41
2023/05/01 02:14:43;;;;;;;4.00;3.70;;;;;;;;;;5026155;28;20029;-44
2023/05/01 02:17:09;;;;;;;4.97;3.72;;;;;;;;;;5022966;28;20077;-43
2023/05/01 02:19:38;;;;;;;4.28;3.88;;;;;;;;;;5025345;28;20037;-42
2023/05/01 02:22:04;;;;;;;4.13;3.67;;;;;;;;;;5024430;28;20040;-42
2023/05/01 02:24:31;;;;;;;4.40;4.00;;;;;;;;;;5027112;28;20379;-42
2023/05/01 02:27:02;;;;;;;6.25;4.10;;;;;;;;;;5024290;28;20038;-42
2023/05/01 02:29:28;;;;;;;9.40;3.80;;;;;;;;;;5023955;28;20537;-42
2023/05/01 02:31:54;;;;;;;4.85;4.03;;;;;;;;;;5025623;28;20126;-42
2023/05/01 02:34:19;;;;;;;3.97;3.65;;;;;;;;;;5027456;28;20048;-43
2023/05/01 02:36:44;;;;;;;4.00;3.67;;;;;;;;;;5020147;28;20134;-42
2023/05/01 02:39:10;;;;;;;7.30;3.58;;;;;;;;;;5023533;28;20029;-43
2023/05/01 02:41:38;;;;;;;5.88;3.75;;;;;;;;;;5025718;28;20042;-42
2023/05/01 02:44:06;;;;;;;4.30;4.00;;;;;;;;;;5023472;28;20414;-42
2023/05/01 02:46:34;;;;;;;7.65;3.80;;;;;;;;;;5025619;28;20036;-43
2023/05/01 02:49:02;;;;;;;8.85;3.88;;;;;;;;;;5023677;28;20033;-43
2023/05/01 02:51:30;;;;;;;5.65;3.95;;;;;;;;;;5022422;28;20497;-42
2023/05/01 02:53:55;;;;;;;4.15;3.78;;;;;;;;;;5021978;28;20029;-42
2023/05/01 02:56:21;;;;;;;4.07;3.75;;;;;;;;;;5023207;28;20054;-43
2023/05/01 02:58:50;;;;;;;4.22;3.83;;;;;;;;;;5025367;28;20026;-42
2023/05/01 03:01:16;;;;;;;4.50;4.10;;;;;;;;;;5023615;28;20041;-42
2023/05/01 03:03:41;;;;;;;4.72;4.20;;;;;;;;;;5024901;28;20033;-44
2023/05/01 03:06:07;;;;;;;4.40;4.00;;;;;;;;;;5023800;28;20533;-42
2023/05/01 03:08:32;;;;;;;4.55;4.15;;;;;;;;;;5024522;28;20084;-43
2023/05/01 03:10:57;;;;;;;4.60;4.20;;;;;;;;;;5024201;28;20037;-42
2023/05/01 03:13:23;;;;;;;4.43;4.03;;;;;;;;;;5020998;28;20029;-43
2023/05/01 03:15:48;;;;;;;4.10;3.80;;;;;;;;;;5021156;28;20115;-42
2023/05/01 03:18:14;;;;;;;4.50;4.20;;;;;;;;;;5025783;28;20079;-42
2023/05/01 03:20:39;;;;;;;9.48;4.20;;;;;;;;;;5022837;28;20413;-45
2023/05/01 03:23:05;;;;;;;5.85;4.13;;;;;;;;;;5023051;28;20040;-42
2023/05/01 03:25:31;;;;;;;4.78;3.75;;;;;;;;;;5023594;28;20053;-42
2023/05/01 03:27:56;;;;;;;5.57;4.15;;;;;;;;;;5025243;28;20024;-42
2023/05/01 03:30:22;;;;;;;7.00;4.07;;;;;;;;;;5023775;28;20025;-46
2023/05/01 03:32:47;;;;;;;5.15;4.22;;;;;;;;;;5024284;28;20030;-40
2023/05/01 03:35:12;;;;;;;4.40;4.00;;;;;;;;;;5024537;28;20056;-42
2023/05/01 03:37:38;;;;;;;6.05;4.18;;;;;;;;;;5023449;28;20030;-42
2023/05/01 03:40:04;;;;;;;4.38;4.03;;;;;;;;;;5023891;28;20038;-45
2023/05/01 03:42:29;;;;;;;4.63;4.22;;;;;;;;;;5022898;28;20038;-42
2023/05/01 03:44:54;;;;;;;4.70;4.30;;;;;;;;;;5024378;28;20033;-43
2023/05/01 03:47:20;;;;;;;4.05;3.75;;;;;;;;;;5020979;28;20394;-42
2023/05/01 03:49:45;;;;;;;4.75;3.88;;;;;;;;;;5021594;28;20025;-43
2023/05/01 03:52:11;;;;;;;4.63;3.78;;;;;;;;;;5023702;28;20048;-42
2023/05/01 03:54:37;;;;;;;4.10;3.80;;;;;;;;;;5023208;28;20424;-42
2023/05/01 03:57:03;;;;;;;4.35;3.50;;;;;;;;;;5025795;28;20065;-42
2023/05/01 03:59:29;;;;;;;4.47;4.07;;;;;;;;;;5022267;28;20466;-42
2023/05/01 04:01:54;;;;;;;5.45;4.03;;;;;;;;;;5024307;28;20065;-42
2023/05/01 04:04:20;;;;;;;4.22;3.85;;;;;;;;;;5018114;28;20146;-41
2023/05/01 04:06:47;;;;;;;5.07;4.07;;;;;;;;;;5023067;28;20045;-42
2023/05/01 04:09:12;;;;;;;5.47;4.32;;;;;;;;;;5023925;28;20033;-43
2023/05/01 04:11:38;;;;;;;4.30;3.90;;;;;;;;;;5023355;28;20108;-43
2023/05/01 04:14:03;;;;;;;4.50;4.10;;;;;;;;;;5022954;28;20029;-42
2023/05/01 04:16:29;;;;;;;7.10;3.95;;;;;;;;;;5020954;28;20083;-42
2023/05/01 04:18:55;;;;;;;5.65;4.03;;;;;;;;;;5021906;28;20029;-42
2023/05/01 04:21:20;;;;;;;4.13;3.78;;;;;;;;;;5024590;28;20037;-42
2023/05/01 04:23:45;;;;;;;4.50;4.18;;;;;;;;;;5023494;28;20025;-43
2023/05/01 04:26:11;;;;;;;4.07;3.70;;;;;;;;;;5024599;28;20045;-43
2023/05/01 04:28:36;;;;;;;4.30;3.90;;;;;;;;;;5021709;28;20029;-45
2023/05/01 04:31:02;;;;;;;4.25;3.95;;;;;;;;;;5022877;28;20037;-45
2023/05/01 04:33:28;;;;;;;5.10;4.00;;;;;;;;;;5019904;28;20034;-42
2023/05/01 04:35:53;;;;;;;4.25;3.80;;;;;;;;;;5023353;28;20045;-42
2023/05/01 04:38:18;;;;;;;4.43;4.03;;;;;;;;;;5022277;28;20494;-42
2023/05/01 04:40:44;;;;;;;4.40;4.10;;;;;;;;;;5022601;28;20045;-41
2023/05/01 04:43:10;;;;;;;4.38;3.97;;;;;;;;;;5021948;28;20037;-44
2023/05/01 04:45:37;;;;;;;4.57;4.20;;;;;;;;;;5021038;28;20037;-48
2023/05/01 04:48:02;;;;;;;5.15;4.05;;;;;;;;;;5025010;28;20037;-44
2023/05/01 04:50:28;;;;;;;5.00;4.50;;;;;;;;;;5022138;28;20038;-43
2023/05/01 04:52:53;;;;;;;4.35;3.92;;;;;;;;;;5022459;28;20045;-42
2023/05/01 04:55:18;;;;;;;5.60;4.82;;;;;;;;;;5020736;28;20108;-42
2023/05/01 04:57:45;;;;;;;13.68;8.90;;;;;;;;;;5021413;28;20037;-45
2023/05/01 05:00:10;;;;;;;14.18;8.38;;;;;;;;;;5022840;28;20100;-46
2023/05/01 05:02:36;;;;;;;10.75;6.13;;;;;;;;;;5021716;28;20156;-42
2023/05/01 05:05:01;;;;;;;10.45;7.00;;;;;;;;;;5022299;28;20033;-42
2023/05/01 05:07:27;;;;;;;16.08;8.90;;;;;;;;;;5025153;28;20482;-42
2023/05/01 05:09:52;;;;;;;7.55;5.97;;;;;;;;;;5021737;28;20025;-42
2023/05/01 05:12:17;;;;;;;7.35;4.43;;;;;;;;;;5022076;28;20034;-41
2023/05/01 05:14:43;;;;;;;4.78;4.38;;;;;;;;;;5021587;28;20033;-42
2023/05/01 05:17:08;;;;;;;5.32;4.03;;;;;;;;;;5022610;28;20046;-48
2023/05/01 05:19:34;;;;;;;6.90;4.10;;;;;;;;;;5020650;28;20029;-50
2023/05/01 05:22:03;;;;;;;4.18;3.80;;;;;;;;;;5022751;28;20037;-45
2023/05/01 05:24:28;;;;;;;3.75;3.42;;;;;;;;;;5024738;28;20125;-50
2023/05/01 05:26:53;;;;;;;4.05;3.75;;;;;;;;;;5025774;28;20116;-45
2023/05/01 05:29:19;;;;;;;4.10;3.80;;;;;;;;;;5026190;28;20034;-46
2023/05/01 05:31:44;;;;;;;5.93;3.88;;;;;;;;;;5025404;28;20049;-42
2023/05/01 05:34:10;;;;;;;3.88;3.58;;;;;;;;;;5025491;28;20030;-42
2023/05/01 05:36:35;;;;;;;4.30;3.90;;;;;;;;;;5026231;28;20029;-41
2023/05/01 05:39:01;;;;;;;4.18;3.70;;;;;;;;;;5026438;28;20121;-44
2023/05/01 05:41:27;;;;;;;4.30;3.90;;;;;;;;;;5024482;28;20124;-45
2023/05/01 05:43:53;;;;;;;4.18;3.72;;;;;;;;;;5027279;28;20477;-43
2023/05/01 05:46:18;;;;;;;4.05;3.63;;;;;;;;;;5025825;28;20049;-45
2023/05/01 05:48:44;;;;;;;3.95;3.45;;;;;;;;;;5025970;28;20386;-42
2023/05/01 05:51:09;;;;;;;4.65;4.25;;;;;;;;;;5025457;28;20048;-42
2023/05/01 05:53:35;;;;;;;4.70;4.32;;;;;;;;;;5026481;28;20033;-44
2023/05/01 05:56:00;;;;;;;5.35;4.05;;;;;;;;;;5026637;28;20140;-41
2023/05/01 05:58:26;;;;;;;4.65;4.00;;;;;;;;;;5024792;28;20041;-41
2023/05/01 06:00:54;;;;;;;3.80;3.53;;;;;;;;;;5024248;28;20124;-44
2023/05/01 06:03:20;;;;;;;4.55;3.80;;;;;;;;;;5021295;28;20060;-44
2023/05/01 06:05:46;;;;;;;5.15;3.47;;;;;;;;;;5024727;28;20183;-48
2023/05/01 06:08:13;;;;;;;3.67;3.38;;;;;;;;;;5021096;28;20482;-45
2023/05/01 06:10:41;;;;;;;3.80;3.50;;;;;;;;;;5024142;28;20044;-42
2023/05/01 06:13:07;;;;;;;4.55;3.80;;;;;;;;;;5024683;28;20091;-44
2023/05/01 06:15:34;;;;;;;3.45;3.25;;;;;;;;;;5019121;28;20103;-42
2023/05/01 06:17:59;;;;;;;6.63;5.03;;;;;;;;;;5025132;28;20097;-43
2023/05/01 06:20:25;;;;;;;5.05;4.65;;;;;;;;;;5020797;28;20080;-44
2023/05/01 06:22:50;;;;;;;7.40;5.78;;;;;;;;;;5025444;28;20021;-47
2023/05/01 06:25:16;;;;;;;3.67;3.38;;;;;;;;;;5020917;28;20079;-45
2023/05/01 06:27:41;;;;;;;5.53;5.03;;;;;;;;;;5024686;28;20026;-43
2023/05/01 06:30:08;;;;;;;5.25;3.78;;;;;;;;;;5024007;28;20029;-42
2023/05/01 06:32:34;;;;;;;3.30;3.00;;;;;;;;;;5024911;28;20030;-46
2023/05/01 06:34:59;;;;;;;2.88;2.67;;;;;;;;;;5023244;28;20037;-44
2023/05/01 06:37:24;;;;;;;7.20;2.95;;;;;;;;;;5023899;28;20131;-42
2023/05/01 06:39:50;;;;;;;5.00;3.40;;;;;;;;;;5022155;28;20025;-41
2023/05/01 06:42:15;;;;;;;3.08;2.88;;;;;;;;;;5024482;28;20604;-41
2023/05/01 06:44:43;;;;;;;6.63;4.90;;;;;;;;;;5022261;28;20025;-43
2023/05/01 06:47:09;;;;;;;2.95;2.72;;;;;;;;;;5024843;28;20076;-41
2023/05/01 06:49:34;;;;;;;3.10;2.88;;;;;;;;;;5020787;28;20025;-42
2023/05/01 06:52:00;;;;;;;3.40;3.00;;;;;;;;;;5024179;28;20048;-41
2023/05/01 06:54:25;;;;;;;4.65;3.10;;;;;;;;;;5024472;28;20041;-42
2023/05/01 06:56:52;;;;;;;2.90;2.70;;;;;;;;;;4981801;28;1131789;-44
2023/05/01 06:59:17;;;;;;;2.92;2.72;;;;;;;;;;5024859;28;20962;-42
2023/05/01 07:01:43;;;;;;;3.38;2.97;;;;;;;;;;5025294;28;20036;-42
2023/05/01 07:04:08;;;;;;;5.38;2.95;;;;;;;;;;5026359;28;20039;-45
2023/05/01 07:06:34;;;;;;;3.22;2.92;;;;;;;;;;5022216;28;20048;-43
2023/05/01 07:08:59;;;;;;;4.45;2.65;;;;;;;;;;5024533;28;20043;-45
2023/05/01 07:11:25;;;;;;;2.92;2.60;;;;;;;;;;5024564;28;20060;-41
2023/05/01 07:13:51;;;;;;;2.88;2.65;;;;;;;;;;5026912;28;20040;-44
2023/05/01 07:16:16;;;;;;;2.63;2.42;;;;;;;;;;5021824;28;20124;-42
2023/05/01 07:18:42;;;;;;;3.17;2.90;;;;;;;;;;5026755;28;20497;-42
2023/05/01 07:21:10;;;;;;;4.97;2.90;;;;;;;;;;5024827;28;20480;-43
2023/05/01 07:23:36;;;;;;;3.58;2.50;;;;;;;;;;5023492;28;20109;-43
2023/05/01 07:26:01;;;;;;;5.05;2.80;;;;;;;;;;5024767;28;20191;-42
2023/05/01 07:28:26;;;;;;;3.35;3.10;;;;;;;;;;5024476;28;20648;-42
2023/05/01 07:30:52;;;;;;;3.00;2.80;;;;;;;;;;5020558;28;20030;-45
2023/05/01 07:33:17;;;;;;;2.55;2.35;;;;;;;;;;5022614;28;20026;-43
2023/05/01 07:35:43;;;;;;;2.38;2.28;;;;;;;;;;5023541;28;21588;-45
2023/05/01 07:38:08;;;;;;;3.15;2.88;;;;;;;;;;5026167;28;20052;-42
2023/05/01 07:40:34;;;;;;;4.80;2.30;;;;;;;;;;5024324;28;20087;-50
2023/05/01 07:42:59;;;;;;;2.70;2.50;;;;;;;;;;5022192;28;20021;-49
2023/05/01 07:45:25;;;;;;;2.92;2.70;;;;;;;;;;5024456;28;20037;-44
2023/05/01 07:47:51;;;;;;;3.22;2.35;;;;;;;;;;5022345;28;20033;-42
2023/05/01 07:50:17;;;;;;;2.83;2.53;;;;;;;;;;5024284;28;20021;-41
2023/05/01 07:52:42;;;;;;;5.40;2.60;;;;;;;;;;5026148;28;20026;-48
2023/05/01 07:55:08;;;;;;;2.85;2.63;;;;;;;;;;5022277;28;20569;-46
2023/05/01 07:57:34;;;;;;;3.83;2.50;;;;;;;;;;5023283;28;20132;-45
2023/05/01 08:00:00;;;;;;;2.83;2.60;;;;;;;;;;5022481;28;20500;-42
2023/05/01 08:02:25;;;;;;;5.95;2.53;;;;;;;;;;5017977;28;20042;-43
2023/05/01 08:04:51;;;;;;;2.40;2.20;;;;;;;;;;5021265;28;20041;-47
2023/05/01 08:07:16;;;;;;;2.53;2.20;;;;;;;;;;5023344;28;20061;-44
2023/05/01 08:09:42;;;;;;;2.60;2.40;;;;;;;;;;5022613;28;20025;-43
2023/05/01 08:12:07;;;;;;;2.53;2.30;;;;;;;;;;5024304;28;20030;-48
2023/05/01 08:14:33;;;;;;;4.25;2.47;;;;;;;;;;5023596;28;20045;-44
2023/05/01 08:16:58;;;;;;;3.28;2.40;;;;;;;;;;5024915;28;20041;-43
2023/05/01 08:19:24;;;;;;;3.80;2.10;;;;;;;;;;5024435;28;20489;-42
2023/05/01 08:21:50;;;;;;;2.88;2.10;;;;;;;;;;5023304;28;20084;-46
2023/05/01 08:24:15;;;;;;;2.40;2.30;;;;;;;;;;5022689;28;20037;-46
2023/05/01 08:26:41;;;;;;;9.23;2.63;;;;;;;;;;5019416;28;20042;-44
2023/05/01 08:29:06;;;;;;;2.72;2.53;;;;;;;;;;5023469;28;20090;-46
2023/05/01 08:31:31;;;;;;;2.97;2.30;;;;;;;;;;5024191;28;20037;-43
2023/05/01 08:33:57;;;;;;;2.83;2.28;;;;;;;;;;5023276;28;20033;-48
2023/05/01 08:36:22;;;;;;;2.55;2.30;;;;;;;;;;5022706;28;20128;-41
2023/05/01 08:38:48;;;;;;;5.38;2.40;;;;;;;;;;5024370;28;20036;-43
2023/05/01 08:41:20;;;;;;;2.47;2.15;;;;;;;;;;5023147;28;20044;-42
2023/05/01 08:43:46;;;;;;;4.80;2.90;;;;;;;;;;5023443;28;20036;-47
2023/05/01 08:46:14;;;;;;;2.88;2.30;;;;;;;;;;5020114;28;20045;-44
2023/05/01 08:48:41;;;;;;;2.38;2.03;;;;;;;;;;5023586;28;20079;-44
2023/05/01 08:51:09;;;;;;;6.50;2.30;;;;;;;;;;5019963;28;20041;-47
2023/05/01 08:53:37;;;;;;;2.65;2.28;;;;;;;;;;5018219;28;20064;-43
2023/05/01 08:56:05;;;;;;;10.02;2.17;;;;;;;;;;5022194;28;20056;-44
2023/05/01 08:58:34;;;;;;;4.50;2.13;;;;;;;;;;5024321;28;20025;-43
2023/05/01 09:01:01;;;;;;;5.05;2.85;;;;;;;;;;5023086;28;20034;-45
2023/05/01 09:03:30;;;;;;;5.65;4.15;;;;;;;;;;5020571;28;20077;-42
2023/05/01 09:05:57;;;;;;;7.43;2.30;;;;;;;;;;5023711;28;20048;-48
2023/05/01 09:08:22;;;;;;;2.05;1.95;;;;;;;;;;5022753;28;20029;-46
2023/05/01 09:10:49;;;;;;;2.47;2.28;;;;;;;;;;5021425;28;21257;-45
2023/05/01 09:13:15;;;;;;;2.78;2.28;;;;;;;;;;5023373;28;20033;-42
2023/05/01 09:15:40;;;;;;;7.88;3.00;;;;;;;;;;5022960;28;20045;-43
2023/05/01 09:18:07;;;;;;;3.95;2.30;;;;;;;;;;5024427;28;20508;-45
2023/05/01 09:20:36;;;;;;;2.75;2.10;;;;;;;;;;5018557;28;20440;-45
2023/05/01 09:23:01;;;;;;;7.35;2.22;;;;;;;;;;5019376;28;20069;-44
2023/05/01 09:25:27;;;;;;;2.20;2.05;;;;;;;;;;5023422;28;20061;-42
2023/05/01 09:27:54;;;;;;;2.38;1.95;;;;;;;;;;5020299;28;20053;-45
2023/05/01 09:30:35;;;;;;;4.00;2.00;;;;;;;;;;5023457;28;20091;-45
2023/05/01 09:33:09;;;;;;;2.88;2.47;;;;;;;;;;5023460;28;20080;-44
2023/05/01 09:35:54;;;;;;;4.20;2.22;;;;;;;;;;5020918;28;20046;-42
2023/05/01 09:38:22;;;;;;;5.43;2.22;;;;;;;;;;5022880;28;20124;-46
2023/05/01 09:40:47;;;;;;;2.70;2.28;;;;;;;;;;5022461;28;20044;-45
2023/05/01 09:43:14;;;;;;;2.42;2.22;;;;;;;;;;5021499;28;20033;-45
2023/05/01 09:45:41;;;;;;;2.50;2.30;;;;;;;;;;5022794;28;20041;-49
2023/05/01 09:48:10;;;;;;;3.25;1.92;;;;;;;;;;5022614;28;20083;-45
2023/05/01 09:50:35;;;;;;;2.13;2.03;;;;;;;;;;5022484;28;20042;-44
2023/05/01 09:53:05;;;;;;;2.33;1.98;;;;;;;;;;5022481;28;20026;-43
2023/05/01 09:55:30;;;;;;;3.72;2.35;;;;;;;;;;5022383;28;20577;-43
2023/05/01 09:57:57;;;;;;;2.58;2.38;;;;;;;;;;5018328;28;20133;-46
2023/05/01 10:00:23;;;;;;;4.32;2.03;;;;;;;;;;5022391;28;20034;-45
2023/05/01 10:02:49;;;;;;;2.28;2.08;;;;;;;;;;5018225;28;20036;-42
2023/05/01 10:05:15;;;;;;;2.47;1.90;;;;;;;;;;5021892;28;20029;-42
2023/05/01 10:08:04;;;;;;;2.67;2.05;;;;;;;;;;5023473;28;20457;-43
2023/05/01 10:10:30;;;;;;;2.60;2.15;;;;;;;;;;5026530;28;20052;-45
2023/05/01 10:12:55;;;;;;;3.47;2.10;;;;;;;;;;5024996;28;20029;-42
2023/05/01 10:15:20;;;;;;;4.30;2.15;;;;;;;;;;5026363;28;20033;-43
2023/05/01 10:17:48;;;;;;;5.60;2.30;;;;;;;;;;5025972;28;20124;-43
2023/05/01 10:20:14;;;;;;;4.07;2.22;;;;;;;;;;5023496;28;20097;-43
2023/05/01 10:22:40;;;;;;;2.65;2.13;;;;;;;;;;5023742;28;20021;-42
2023/05/01 10:25:12;;;;;;;4.75;2.28;;;;;;;;;;5027266;28;20033;-43
2023/05/01 10:27:39;;;;;;;2.72;1.85;;;;;;;;;;5025517;28;20042;-42
2023/05/01 10:30:06;;;;;;;6.53;2.40;;;;;;;;;;5024583;28;20033;-42
2023/05/01 10:32:32;;;;;;;4.18;1.95;;;;;;;;;;5021246;28;20521;-43
2023/05/01 10:35:24;;;;;;;2.40;1.95;;;;;;;;;;5025968;28;20117;-44
2023/05/01 10:38:16;;;;;;;5.20;2.03;;;;;;;;;;5015686;28;20041;-43
2023/05/01 10:40:46;;;;;;;2.10;2.00;;;;;;;;;;5025546;28;20065;-44
2023/05/01 10:43:28;;;;;;;2.28;2.10;;;;;;;;;;5026038;28;20398;-42
2023/05/01 10:46:06;;;;;;;2.67;2.22;;;;;;;;;;5025312;28;20088;-45
2023/05/01 10:48:46;;;;;;;2.10;2.00;;;;;;;;;;5023696;28;20033;-43
2023/05/01 10:51:19;;;;;;;2.15;2.05;;;;;;;;;;5022774;28;20109;-44
2023/05/01 10:53:45;;;;;;;2.92;2.15;;;;;;;;;;5022134;28;20022;-45
2023/05/01 10:56:29;;;;;;;2.05;1.83;;;;;;;;;;5027602;28;20026;-43
2023/05/01 10:58:58;;;;;;;3.15;2.08;;;;;;;;;;5029042;28;20021;-43
2023/05/01 11:01:27;;;;;;;7.35;1.90;;;;;;;;;;5022575;28;20030;-43
2023/05/01 11:04:02;;;;;;;5.07;1.90;;;;;;;;;;5025083;28;20398;-42
2023/05/01 11:06:28;;;;;;;2.42;2.22;;;;;;;;;;5023774;28;20048;-43
2023/05/01 11:08:54;;;;;;;2.17;1.95;;;;;;;;;;5025517;28;20029;-43
2023/05/01 11:11:22;;;;;;;2.90;2.03;;;;;;;;;;5022873;28;20057;-43
2023/05/01 11:13:57;;;;;;;6.30;2.40;;;;;;;;;;5022400;28;20030;-43
2023/05/01 11:16:40;;;;;;;8.98;2.50;;;;;;;;;;5022768;28;20102;-43
2023/05/01 11:19:21;;;;;;;3.58;1.67;;;;;;;;;;5025053;28;20032;-42
2023/05/01 11:21:47;;;;;;;2.78;2.00;;;;;;;;;;5023374;28;20029;-44
2023/05/01 11:24:13;;;;;;;2.35;1.60;;;;;;;;;;5025318;28;20026;-42
2023/05/01 11:26:41;;;;;;;4.00;1.98;;;;;;;;;;5024359;28;20163;-44
2023/05/01 11:29:09;;;;;;;5.25;1.98;;;;;;;;;;5024999;28;20686;-43
2023/05/01 11:31:34;;;;;;;1.92;1.83;;;;;;;;;;5023062;28;20030;-43
2023/05/01 11:34:00;;;;;;;2.65;2.20;;;;;;;;;;5022818;28;20029;-46
2023/05/01 11:36:27;;;;;;;2.13;1.75;;;;;;;;;;5023769;28;20056;-48
2023/05/01 11:38:55;;;;;;;2.03;1.80;;;;;;;;;;5022537;28;20043;-46
2023/05/01 11:41:22;;;;;;;6.35;2.20;;;;;;;;;;5022881;28;20034;-43
2023/05/01 11:43:49;;;;;;;2.50;2.00;;;;;;;;;;5025601;28;20125;-45
2023/05/01 11:46:28;;;;;;;2.75;1.85;;;;;;;;;;5024634;28;20034;-44
2023/05/01 11:48:58;;;;;;;5.95;2.20;;;;;;;;;;5024501;28;20030;-49
2023/05/01 11:51:25;;;;;;;5.78;2.42;;;;;;;;;;5025386;28;20193;-43
2023/05/01 11:54:02;;;;;;;7.03;2.17;;;;;;;;;;5026384;28;20072;-43
2023/05/01 11:56:28;;;;;;;2.13;1.92;;;;;;;;;;5021071;28;20107;-44
2023/05/01 11:58:58;;;;;;;3.28;1.60;;;;;;;;;;5024584;28;20514;-42
2023/05/01 12:01:37;;;;;;;2.92;1.77;;;;;;;;;;5024023;28;20380;-45
2023/05/01 12:04:04;;;;;;;7.93;1.75;;;;;;;;;;5024030;28;20049;-47
2023/05/01 12:06:44;;;;;;;3.33;2.15;;;;;;;;;;5022735;28;20068;-42
2023/05/01 12:09:16;;;;;;;1.85;1.55;;;;;;;;;;5020743;28;20030;-43
2023/05/01 12:11:42;;;;;;;3.53;1.73;;;;;;;;;;5023838;28;20056;-43
2023/05/01 12:14:08;;;;;;;4.72;1.95;;;;;;;;;;5022130;28;20037;-42
2023/05/01 12:16:35;;;;;;;10.95;2.25;;;;;;;;;;5021224;28;20030;-46
2023/05/01 12:19:01;;;;;;;7.20;2.10;;;;;;;;;;5022135;28;20033;-43
2023/05/01 12:21:27;;;;;;;2.10;1.80;;;;;;;;;;5022122;28;20120;-42
2023/05/01 12:23:53;;;;;;;5.22;1.52;;;;;;;;;;5020458;28;20112;-44
2023/05/01 12:26:24;;;;;;;1.98;1.88;;;;;;;;;;5022408;28;20046;-42
2023/05/01 12:29:08;;;;;;;4.35;2.05;;;;;;;;;;5023507;28;20367;-42
2023/05/01 12:31:34;;;;;;;3.33;1.70;;;;;;;;;;5020285;28;20051;-44
2023/05/01 12:34:03;;;;;;;4.25;1.52;;;;;;;;;;5025098;28;20068;-43
2023/05/01 12:36:30;;;;;;;5.63;1.70;;;;;;;;;;5025405;28;20045;-45
2023/05/01 12:39:01;;;;;;;1.90;1.60;;;;;;;;;;5023962;28;20033;-43
2023/05/01 12:41:33;;;;;;;16.15;2.05;;;;;;;;;;5023633;28;20029;-43
2023/05/01 12:43:59;;;;;;;;;;;;;;;;;;5024691;28;20025;-42
2023/05/01 12:46:25;;;;;;;1.50;1.40;;;;;;;;;;5020858;28;19921;-43
2023/05/01 12:48:51;;;;;;;3.50;1.70;;;;;;;;;;5024172;28;20034;-42
2023/05/01 12:51:18;;;;;;;9.15;2.25;;;;;;;;;;5025003;28;20104;-44
2023/05/01 12:53:44;;;;;;;6.05;1.58;;;;;;;;;;5022813;28;20034;-45
2023/05/01 12:56:22;;;;;;;5.47;1.70;;;;;;;;;;5023616;28;20553;-43
2023/05/01 12:58:47;;;;;;;4.05;1.73;;;;;;;;;;5025749;28;20029;-42
2023/05/01 13:01:23;;;;;;;7.32;2.08;;;;;;;;;;5021894;28;20033;-43
2023/05/01 13:03:49;;;;;;;4.40;1.85;;;;;;;;;;5019623;28;20044;-44
2023/05/01 13:06:15;;;;;;;4.55;1.45;;;;;;;;;;5020848;28;20088;-42
2023/05/01 13:08:41;;;;;;;2.25;1.50;;;;;;;;;;5021255;28;20033;-46
2023/05/01 13:11:16;;;;;;;5.18;1.60;;;;;;;;;;5021426;28;20497;-44
2023/05/01 13:13:43;;;;;;;1.95;1.65;;;;;;;;;;5023751;28;20029;-43
2023/05/01 13:16:15;;;;;;;6.97;1.80;;;;;;;;;;5023908;28;20041;-44
2023/05/01 13:18:46;;;;;;;5.25;1.40;;;;;;;;;;5021590;28;20055;-42
2023/05/01 13:21:14;;;;;;;2.78;2.45;;;;;;;;;;5021815;28;20632;-42
2023/05/01 13:23:41;;;;;;;12.25;2.78;;;;;;;;;;5022224;28;20033;-43
2023/05/01 13:26:07;;;;;;;8.38;2.28;;;;;;;;;;5022600;28;20104;-45
2023/05/01 13:28:34;;;;;;;4.80;1.50;;;;;;;;;;5023186;28;20051;-43
2023/05/01 13:31:00;;;;;;;16.90;1.98;;;;;;;;;;5019520;28;20067;-42
2023/05/01 13:33:29;;;;;;;17.90;2.13;;;;;;;;;;5023330;28;20033;-43
2023/05/01 13:35:55;;;;;;;3.88;1.60;;;;;;;;;;5021372;28;20454;-43
2023/05/01 13:38:23;;;;;;;4.05;1.80;;;;;;;;;;5023306;28;20053;-43
2023/05/01 13:40:49;;;;;;;6.25;2.03;;;;;;;;;;5023152;28;20045;-42
2023/05/01 13:43:15;;;;;;;12.93;1.80;;;;;;;;;;5022036;28;20025;-45
2023/05/01 13:45:41;;;;;;;3.55;1.40;;;;;;;;;;5028276;28;20120;-42
2023/05/01 13:48:07;;;;;;;8.73;1.55;;;;;;;;;;5027434;28;20145;-44
2023/05/01 13:50:33;;;;;;;4.40;1.65;;;;;;;;;;5024750;28;20516;-43
2023/05/01 13:52:59;;;;;;;8.10;1.30;;;;;;;;;;5026048;28;20112;-47
2023/05/01 13:55:24;;;;;;;4.93;1.48;;;;;;;;;;5025334;28;20037;-43
2023/05/01 13:57:50;;;;;;;3.67;1.52;;;;;;;;;;5024238;28;20041;-42
2023/05/01 14:00:17;;;;;;;6.88;1.65;;;;;;;;;;5025722;28;20110;-42
2023/05/01 14:02:46;;;;;;;29.55;2.15;;;;;;;;;;5022245;28;20093;-45
2023/05/01 14:05:11;;;;;;;12.25;1.67;;;;;;;;;;5024077;28;20571;-43
2023/05/01 14:07:44;;;;;;;10.43;1.75;;;;;;;;;;5025194;28;20065;-45
2023/05/01 14:10:10;;;;;;;1.48;1.38;;;;;;;;;;5025481;28;20558;-43
2023/05/01 14:12:38;;;;;;;9.63;1.60;;;;;;;;;;5028488;28;20120;-43
2023/05/01 14:15:06;;;;;;;5.90;1.48;;;;;;;;;;5024740;28;20041;-46
2023/05/01 14:17:33;;;;;;;4.00;1.80;;;;;;;;;;5023427;28;20041;-45
2023/05/01 14:19:59;;;;;;;2.03;1.48;;;;;;;;;;5026361;28;20026;-43
2023/05/01 14:22:29;;;;;;;2.63;1.40;;;;;;;;;;5025562;28;20076;-43
2023/05/01 14:24:56;;;;;;;2.90;1.30;;;;;;;;;;5023900;28;20402;-43
2023/05/01 14:27:21;;;;;;;8.23;2.92;;;;;;;;;;5026809;28;20551;-43
2023/05/01 14:29:48;;;;;;;2.90;1.40;;;;;;;;;;5021987;28;20037;-43
2023/05/01 14:32:15;;;;;;;4.32;1.52;;;;;;;;;;5026840;28;20486;-49
2023/05/01 14:34:41;;;;;;;3.67;1.25;;;;;;;;;;5023410;28;20025;-42
2023/05/01 14:37:08;;;;;;;1.58;1.25;;;;;;;;;;5022978;28;22279;-48
2023/05/01 14:39:34;;;;;;;1.70;1.40;;;;;;;;;;5023552;28;20556;-43
2023/05/01 14:42:00;;;;;;;7.20;1.55;;;;;;;;;;5024945;28;20041;-42
2023/05/01 14:44:29;;;;;;;6.63;1.42;;;;;;;;;;5024328;28;20029;-42
2023/05/01 14:46:55;;;;;;;1.95;1.33;;;;;;;;;;5024168;28;20041;-42